CheckWX is a tool to help pilots better visualize weather data.  It is not intended as a substitute for an official pre-flight weather briefing.

13:21:38 UTC

KHSV TAF
Huntsville International-Carl T Jones Field Airport
Huntsville, Alabama, USA
KHSV 181120Z 1812/1912 VRB04KT P6SM FEW250

Aug-18@
12:00 UTC

Aug-18 @ 12:00 UTC

Aug-19@
12:00 UTC

Aug-19 @ 12:00 UTC

KHSV 181120Z 1812/1912 VRB04KT P6SM FEW250
Wind
  • Variable at 4 KTS
Cloud Levels
  • Few at 25,000' AGL